Wetterdaten vom Dienstag, 19. Februar 2019

Temperatur Taupunkt Windchill Luftfeuchte Luftdruck Solarstrahlung Regen ET
(Verdunstung von Wasser)
Wind
Max 3.4 °C
04:30
0.5 °C
04:30
3.4 °C
04:35
91%
00:40
988.6 hPa
00:55
0 W/m²
00:00
9.2 km/h
00:40 km/h
Durchschnitt 1.6 °C -0.6 °C 1.4 °C 85% 987.9 hPa 0 W/m² 0 mm 0.051 mm 2.8 km/h
Min -0.8 °C
02:00
-2.5 °C
02:00
-1.6 °C
00:40
80%
04:35
987.2 hPa
06:10
0 km/h (Böe)
00:00 km/h
Zeit
00:00 0.9 °C -0.6 °C 0.9 °C 90% 988.2 hPa 0 W/m² 0.0 mm 0.000 mm 0.0 km/h
00:05 0.8 °C -0.6 °C 0.8 °C 90% 988.5 hPa 0 W/m² 0.0 mm 0.000 mm 0.0 km/h
00:10 0.7 °C -0.9 °C 0.7 °C 89% 988.5 hPa 0 W/m² 0.0 mm 0.000 mm 0.0 km/h
00:15 0.6 °C -1.0 °C 0.6 °C 89% 988.5 hPa 0 W/m² 0.0 mm 0.000 mm 0.0 km/h
00:20 0.4 °C -1.2 °C 0.4 °C 89% 988.3 hPa 0 W/m² 0.0 mm 0.000 mm 0.0 km/h
00:25 0.3 °C -1.3 °C 0.3 °C 89% 988.4 hPa 0 W/m² 0.0 mm 0.000 mm 0.0 km/h
00:30 0.2 °C -1.4 °C 0.2 °C 89% 988.3 hPa 0 W/m² 0.0 mm 0.000 mm 5.2 km/h
00:35 0.6 °C -0.8 °C -0.3 °C 90% 988.2 hPa 0 W/m² 0.0 mm 0.000 mm 7.3 km/h
00:40 1.1 °C -0.2 °C -1.6 °C 91% 988.3 hPa 0 W/m² 0.0 mm 0.000 mm 9.2 km/h
00:45 1.3 °C -0.0 °C 1.3 °C 91% 988.5 hPa 0 W/m² 0.0 mm 0.000 mm 4.9 km/h
00:50 1.4 °C -0.1 °C 1.4 °C 90% 988.5 hPa 0 W/m² 0.0 mm 0.000 mm 1.8 km/h
00:55 1.3 °C -0.3 °C 1.3 °C 89% 988.6 hPa 0 W/m² 0.0 mm 0.000 mm 0.0 km/h
01:00 1.1 °C -0.7 °C 1.1 °C 88% 988.5 hPa 0 W/m² 0.0 mm 0.000 mm 0.0 km/h
01:05 0.8 °C -1.0 °C 0.8 °C 88% 988.5 hPa 0 W/m² 0.0 mm 0.000 mm 0.0 km/h
01:10 0.6 °C -1.3 °C 0.6 °C 87% 988.3 hPa 0 W/m² 0.0 mm 0.000 mm 0.0 km/h
01:15 0.4 °C -1.5 °C 0.4 °C 87% 988.2 hPa 0 W/m² 0.0 mm 0.000 mm 0.0 km/h
01:20 0.2 °C -1.7 °C 0.2 °C 87% 988.2 hPa 0 W/m² 0.0 mm 0.000 mm 0.0 km/h
01:25 0.0 °C -1.9 °C 0.0 °C 87% 988.1 hPa 0 W/m² 0.0 mm 0.000 mm 0.0 km/h
01:30 -0.2 °C -2.1 °C -0.2 °C 87% 988.0 hPa 0 W/m² 0.0 mm 0.000 mm 0.0 km/h
01:35 -0.3 °C -2.2 °C -0.3 °C 87% 988.3 hPa 0 W/m² 0.0 mm 0.000 mm 0.0 km/h
01:40 -0.5 °C -2.4 °C -0.5 °C 87% 988.2 hPa 0 W/m² 0.0 mm 0.000 mm 0.0 km/h
01:45 -0.6 °C -2.5 °C -0.6 °C 87% 987.9 hPa 0 W/m² 0.0 mm 0.000 mm 0.4 km/h
01:50 -0.7 °C -2.4 °C -0.7 °C 88% 988.2 hPa 0 W/m² 0.0 mm 0.000 mm 0.4 km/h
01:55 -0.7 °C -2.4 °C -0.7 °C 88% 988.2 hPa 0 W/m² 0.0 mm 0.000 mm 0.1 km/h
02:00 -0.8 °C -2.5 °C -0.8 °C 88% 988.0 hPa 0 W/m² 0.0 mm 0.000 mm 2.8 km/h
02:05 -0.8 °C -2.5 °C -0.8 °C 88% 988.0 hPa 0 W/m² 0.0 mm 0.000 mm 1.8 km/h
02:10 -0.8 °C -2.5 °C -0.8 °C 88% 988.2 hPa 0 W/m² 0.0 mm 0.000 mm 1.5 km/h
02:15 -0.8 °C -2.5 °C -0.8 °C 88% 988.2 hPa 0 W/m² 0.0 mm 0.000 mm 0.4 km/h
02:20 -0.7 °C -2.3 °C -0.7 °C 89% 988.2 hPa 0 W/m² 0.0 mm 0.000 mm 2.0 km/h
02:25 -0.3 °C -1.7 °C -0.3 °C 90% 988.3 hPa 0 W/m² 0.0 mm 0.000 mm 3.5 km/h
02:30 0.0 °C -1.3 °C 0.0 °C 91% 988.1 hPa 0 W/m² 0.0 mm 0.000 mm 1.6 km/h
02:35 0.2 °C -1.1 °C 0.2 °C 91% 988.2 hPa 0 W/m² 0.0 mm 0.000 mm 0.8 km/h
02:40 0.3 °C -1.1 °C 0.3 °C 90% 988.2 hPa 0 W/m² 0.0 mm 0.000 mm 1.5 km/h
02:45 0.7 °C -0.6 °C 0.7 °C 91% 988.2 hPa 0 W/m² 0.0 mm 0.000 mm 5.5 km/h
02:50 1.1 °C -0.2 °C 1.1 °C 91% 988.0 hPa 0 W/m² 0.0 mm 0.000 mm 4.8 km/h
02:55 1.4 °C -0.1 °C 1.4 °C 90% 988.0 hPa 0 W/m² 0.0 mm 0.000 mm 4.1 km/h
03:00 1.8 °C 0.3 °C 1.8 °C 90% 987.9 hPa 0 W/m² 0.0 mm 0.000 mm 2.6 km/h
03:05 1.8 °C 0.0 °C 1.8 °C 88% 987.8 hPa 0 W/m² 0.0 mm 0.000 mm 2.3 km/h
03:10 1.8 °C -0.1 °C 1.8 °C 87% 987.5 hPa 0 W/m² 0.0 mm 0.000 mm 3.9 km/h
03:15 1.9 °C -0.0 °C 1.9 °C 87% 987.9 hPa 0 W/m² 0.0 mm 0.000 mm 1.7 km/h
03:20 2.1 °C 0.2 °C 2.1 °C 87% 987.8 hPa 0 W/m² 0.0 mm 0.000 mm 2.5 km/h
03:25 2.2 °C 0.1 °C 2.2 °C 86% 987.4 hPa 0 W/m² 0.0 mm 0.000 mm 0.5 km/h
03:30 2.3 °C 0.0 °C 2.3 °C 85% 987.5 hPa 0 W/m² 0.0 mm 0.000 mm 2.2 km/h
03:35 2.3 °C 0.0 °C 2.3 °C 85% 987.6 hPa 0 W/m² 0.0 mm 0.000 mm 1.5 km/h
03:40 2.3 °C -0.1 °C 2.3 °C 84% 987.4 hPa 0 W/m² 0.0 mm 0.000 mm 5.0 km/h
03:45 2.4 °C -0.0 °C 2.4 °C 84% 987.5 hPa 0 W/m² 0.0 mm 0.000 mm 5.2 km/h
03:50 2.4 °C -0.0 °C 2.4 °C 84% 987.5 hPa 0 W/m² 0.0 mm 0.000 mm 5.3 km/h
03:55 2.5 °C -0.1 °C 1.9 °C 83% 987.5 hPa 0 W/m² 0.0 mm 0.000 mm 7.0 km/h
04:00 2.6 °C 0.0 °C 1.8 °C 83% 987.6 hPa 0 W/m² 0.0 mm 0.000 mm 7.2 km/h
04:05 2.7 °C 0.1 °C 0.9 °C 83% 987.6 hPa 0 W/m² 0.0 mm 0.000 mm 8.3 km/h
04:10 2.8 °C 0.0 °C 1.8 °C 82% 987.6 hPa 0 W/m² 0.0 mm 0.000 mm 7.4 km/h
04:15 2.9 °C 0.1 °C 0.9 °C 82% 987.3 hPa 0 W/m² 0.0 mm 0.000 mm 8.6 km/h
04:20 3.1 °C 0.3 °C 2.0 °C 82% 987.4 hPa 0 W/m² 0.0 mm 0.000 mm 7.6 km/h
04:25 3.2 °C 0.3 °C 1.8 °C 81% 987.5 hPa 0 W/m² 0.0 mm 0.000 mm 7.9 km/h
04:30 3.4 °C 0.5 °C 3.1 °C 81% 987.5 hPa 0 W/m² 0.0 mm 0.000 mm 6.7 km/h
04:35 3.4 °C 0.3 °C 3.4 °C 80% 987.6 hPa 0 W/m² 0.0 mm 0.000 mm 3.3 km/h
04:40 3.4 °C 0.3 °C 3.4 °C 80% 987.5 hPa 0 W/m² 0.0 mm 0.000 mm 2.9 km/h
04:45 3.4 °C 0.3 °C 3.4 °C 80% 987.7 hPa 0 W/m² 0.0 mm 0.000 mm 0.6 km/h
04:50 3.3 °C 0.2 °C 3.3 °C 80% 987.7 hPa 0 W/m² 0.0 mm 0.000 mm 3.5 km/h
04:55 3.2 °C 0.1 °C 3.2 °C 80% 987.7 hPa 0 W/m² 0.0 mm 0.000 mm 5.2 km/h
05:00 3.2 °C 0.1 °C 1.6 °C 80% 987.8 hPa 0 W/m² 0.0 mm 0.025 mm 8.1 km/h
05:05 3.2 °C 0.1 °C 2.5 °C 80% 987.7 hPa 0 W/m² 0.0 mm 0.000 mm 7.1 km/h
05:10 3.2 °C 0.1 °C 2.4 °C 80% 987.6 hPa 0 W/m² 0.0 mm 0.000 mm 7.2 km/h
05:15 3.2 °C 0.1 °C 3.2 °C 80% 987.5 hPa 0 W/m² 0.0 mm 0.000 mm 5.7 km/h
05:20 3.2 °C 0.1 °C 3.2 °C 80% 987.5 hPa 0 W/m² 0.0 mm 0.000 mm 5.0 km/h
05:25 3.2 °C 0.1 °C 3.2 °C 80% 987.5 hPa 0 W/m² 0.0 mm 0.000 mm 4.0 km/h
05:30 3.2 °C 0.1 °C 3.2 °C 80% 987.5 hPa 0 W/m² 0.0 mm 0.000 mm 3.6 km/h
05:35 3.2 °C 0.1 °C 3.2 °C 80% 987.5 hPa 0 W/m² 0.0 mm 0.000 mm 2.9 km/h
05:40 3.2 °C 0.1 °C 3.2 °C 80% 987.7 hPa 0 W/m² 0.0 mm 0.000 mm 0.7 km/h
05:45 3.2 °C 0.3 °C 3.2 °C 81% 987.5 hPa 0 W/m² 0.0 mm 0.000 mm 0.2 km/h
05:50 3.2 °C 0.3 °C 3.2 °C 81% 987.4 hPa 0 W/m² 0.0 mm 0.000 mm 0.1 km/h
05:55 3.1 °C -0.0 °C 3.1 °C 80% 987.4 hPa 0 W/m² 0.0 mm 0.000 mm 0.0 km/h
06:00 3.1 °C 0.2 °C 3.1 °C 81% 987.3 hPa 0 W/m² 0.0 mm 0.026 mm 0.1 km/h
06:05 3.0 °C 0.1 °C 3.0 °C 81% 987.3 hPa 0 W/m² 0.0 mm 0.000 mm 0.7 km/h
06:10 3.0 °C 0.1 °C 3.0 °C 81% 987.2 hPa 0 W/m² 0.0 mm 0.000 mm 0.4 km/h
06:15 3.0 °C 0.1 °C 3.0 °C 81% 987.4 hPa 0 W/m² 0.0 mm 0.000 mm 0.0 km/h